Time;durP1;ratioP1;P1;durP2;ratioP2;P2;SDS_P1;SDS_P2;PMS_P1;PMS_P2;Temp;Humidity;BMP_temperature;BMP_pressure;BME280_temperature;BME280_humidity;BME280_pressure;Samples;Min_cycle;Max_cycle;Signal;HPM_P1;HPM_P2
2021/08/05 13:41:03;;;;;;;5.03;4.63;;;21.70;98.30;;;;;;5172451;22;20485;-81
2021/08/05 13:43:08;;;;;;;6.30;5.03;;;21.50;98.30;;;;;;5206569;22;20427;-82
2021/08/05 13:45:12;;;;;;;6.90;5.40;;;21.30;98.30;;;;;;5207503;22;20431;-82
2021/08/05 13:47:16;;;;;;;6.23;4.37;;;21.10;98.30;;;;;;5206727;22;20415;-81
2021/08/05 13:49:20;;;;;;;7.83;4.93;;;20.90;98.30;;;;;;5206436;22;20423;-82
2021/08/05 13:51:22;;;;;;;8.90;5.00;;;21.00;98.30;;;;;;5205808;22;20829;-82
2021/08/05 13:53:25;;;;;;;6.10;4.63;;;21.00;98.30;;;;;;5196313;22;20434;-82
2021/08/05 13:55:34;;;;;;;10.70;5.20;;;20.90;98.30;;;;;;5204387;22;20486;-82
2021/08/05 13:57:39;;;;;;;6.90;4.60;;;20.90;98.30;;;;;;5203375;22;20410;-83
2021/08/05 13:59:42;;;;;;;6.00;5.33;;;21.00;98.30;;;;;;5196032;22;20491;-82
2021/08/05 14:01:44;;;;;;;5.83;5.20;;;21.10;98.30;;;;;;5195404;22;20453;-82
2021/08/05 14:03:49;;;;;;;6.17;5.13;;;21.30;98.30;;;;;;5196366;22;20419;-81
2021/08/05 14:05:53;;;;;;;12.20;6.47;;;21.40;98.30;;;;;;5196467;22;20427;-83
2021/08/05 14:07:56;;;;;;;6.87;5.77;;;21.50;98.30;;;;;;5204364;22;20422;-82
2021/08/05 14:09:59;;;;;;;6.73;6.03;;;21.70;98.30;;;;;;5196742;22;20563;-81
2021/08/05 14:12:07;;;;;;;7.00;5.40;;;21.90;98.30;;;;;;5195831;22;20454;-81
2021/08/05 14:14:11;;;;;;;7.30;6.47;;;22.10;98.30;;;;;;5195029;22;20437;-81
2021/08/05 14:16:14;;;;;;;5.47;4.90;;;22.30;98.30;;;;;;5195714;22;20423;-82
2021/08/05 14:18:17;;;;;;;8.70;5.53;;;22.40;98.30;;;;;;5196277;22;20431;-83
2021/08/05 14:20:20;;;;;;;6.37;5.77;;;22.50;98.30;;;;;;5203314;22;20450;-82
2021/08/05 14:22:23;;;;;;;8.60;6.80;;;22.60;98.30;;;;;;5193037;22;20427;-81
2021/08/05 14:24:26;;;;;;;6.80;5.63;;;22.60;98.30;;;;;;5195047;22;20431;-81
2021/08/05 14:26:29;;;;;;;6.03;4.80;;;22.70;98.30;;;;;;5203678;22;20415;-81
2021/08/05 14:28:32;;;;;;;6.90;5.43;;;23.00;98.30;;;;;;5204171;22;20419;-83
2021/08/05 14:30:36;;;;;;;5.43;4.93;;;23.10;98.30;;;;;;5196193;22;20482;-83
2021/08/05 14:32:39;;;;;;;6.23;4.83;;;23.20;98.30;;;;;;5195789;22;20434;-82
2021/08/05 14:34:42;;;;;;;5.60;5.10;;;23.10;98.30;;;;;;5194877;22;20453;-81
2021/08/05 14:36:45;;;;;;;4.50;4.10;;;23.10;98.30;;;;;;5195808;22;20501;-81
2021/08/05 14:38:48;;;;;;;6.23;5.10;;;23.10;98.30;;;;;;5195132;22;20426;-81
2021/08/05 14:40:51;;;;;;;5.87;5.37;;;23.10;98.30;;;;;;5196039;22;20537;-82
2021/08/05 14:42:53;;;;;;;6.23;5.63;;;23.20;98.30;;;;;;5197799;22;20423;-82
2021/08/05 14:44:56;;;;;;;6.50;5.90;;;23.30;98.30;;;;;;5208779;22;20498;-81
2021/08/05 14:47:01;;;;;;;4.80;4.33;;;23.50;98.30;;;;;;5202882;22;20987;-81
2021/08/05 14:49:04;;;;;;;4.97;4.50;;;23.70;98.30;;;;;;5200143;22;20421;-82
2021/08/05 14:51:08;;;;;;;4.70;4.07;;;23.80;98.30;;;;;;5199323;22;20454;-81
2021/08/05 14:53:11;;;;;;;5.07;4.00;;;23.70;98.30;;;;;;5215979;22;20450;-81
2021/08/05 14:55:14;;;;;;;4.50;3.60;;;23.90;98.30;;;;;;5201416;22;20473;-80
2021/08/05 14:57:17;;;;;;;3.80;3.33;;;24.00;98.30;;;;;;5198339;22;20437;-80
2021/08/05 14:59:20;;;;;;;4.40;4.00;;;24.10;98.30;;;;;;5204151;22;20454;-81
2021/08/05 15:01:22;;;;;;;4.70;4.20;;;24.20;98.30;;;;;;5203984;22;20979;-81
2021/08/05 15:03:30;;;;;;;5.30;3.90;;;24.20;97.30;;;;;;5210574;22;20448;-81
2021/08/05 15:05:37;;;;;;;3.90;3.50;;;24.00;97.80;;;;;;5206423;22;20481;-81
2021/08/05 15:07:43;;;;;;;3.93;3.53;;;23.80;98.10;;;;;;5203442;22;20419;-81
2021/08/05 15:09:46;;;;;;;4.70;3.90;;;23.70;98.30;;;;;;5204177;22;20438;-81
2021/08/05 15:11:49;;;;;;;4.77;4.27;;;23.60;98.30;;;;;;5195488;22;20451;-81
2021/08/05 15:13:54;;;;;;;4.20;3.80;;;23.60;98.30;;;;;;5203059;22;20418;-81
2021/08/05 15:16:00;;;;;;;4.90;4.40;;;23.70;98.30;;;;;;5195492;22;20441;-81
2021/08/05 15:18:04;;;;;;;5.90;4.20;;;23.60;98.30;;;;;;5197318;22;20434;-82
2021/08/05 15:20:10;;;;;;;5.90;3.80;;;23.70;98.30;;;;;;5208068;22;20986;-83
2021/08/05 15:22:13;;;;;;;4.70;4.20;;;23.90;98.30;;;;;;5200540;22;20407;-82
2021/08/05 15:24:16;;;;;;;4.40;3.97;;;23.90;98.30;;;;;;5209211;22;20426;-82
2021/08/05 15:26:19;;;;;;;4.20;3.83;;;24.00;98.30;;;;;;5199606;22;20430;-82
2021/08/05 15:28:22;;;;;;;7.03;4.13;;;23.90;98.30;;;;;;5202571;22;20430;-83
2021/08/05 15:30:25;;;;;;;4.20;3.80;;;23.80;98.30;;;;;;5208770;22;20981;-82
2021/08/05 15:32:30;;;;;;;7.27;4.20;;;23.90;98.30;;;;;;5195564;22;20426;-81
2021/08/05 15:34:33;;;;;;;4.50;3.83;;;23.90;98.30;;;;;;5192958;22;20418;-81
2021/08/05 15:36:38;;;;;;;5.73;3.70;;;23.80;98.30;;;;;;5202600;22;21224;-82
2021/08/05 15:38:41;;;;;;;4.77;3.63;;;24.00;98.30;;;;;;5201669;22;20417;-82
2021/08/05 15:40:46;;;;;;;5.50;3.90;;;23.90;98.30;;;;;;5195810;22;20482;-81
2021/08/05 15:42:49;;;;;;;4.97;3.97;;;23.80;98.30;;;;;;5195933;22;20553;-81
2021/08/05 15:44:53;;;;;;;3.83;3.53;;;23.90;98.30;;;;;;5204817;22;20438;-81
2021/08/05 15:46:56;;;;;;;4.67;4.00;;;23.70;98.30;;;;;;5196903;22;20433;-81
2021/08/05 15:48:59;;;;;;;3.93;3.60;;;23.60;98.30;;;;;;5197129;22;20427;-82
2021/08/05 15:51:02;;;;;;;4.67;3.53;;;23.70;98.30;;;;;;5196002;22;20457;-83
2021/08/05 15:53:07;;;;;;;5.40;4.17;;;23.50;98.30;;;;;;5202197;22;20442;-80
2021/08/05 15:55:11;;;;;;;4.57;3.63;;;23.40;98.30;;;;;;5202572;22;20443;-81
2021/08/05 15:57:14;;;;;;;8.50;3.97;;;23.10;98.30;;;;;;5202513;22;20957;-81
2021/08/05 15:59:17;;;;;;;5.33;4.83;;;23.10;98.30;;;;;;5202853;22;20426;-81
2021/08/05 16:01:22;;;;;;;4.60;3.70;;;23.10;98.30;;;;;;5203474;22;20442;-81
2021/08/05 16:03:26;;;;;;;4.70;3.70;;;23.20;98.30;;;;;;5197627;22;20411;-81
2021/08/05 16:05:35;;;;;;;4.17;3.40;;;23.10;98.30;;;;;;5205308;22;20453;-81
2021/08/05 16:07:40;;;;;;;4.80;4.03;;;23.00;98.30;;;;;;5196845;22;20484;-81
2021/08/05 16:09:45;;;;;;;4.87;4.47;;;22.80;98.30;;;;;;5196025;22;20426;-82
2021/08/05 16:11:49;;;;;;;4.00;3.70;;;22.80;98.30;;;;;;5202598;22;20560;-82
2021/08/05 16:13:58;;;;;;;6.70;3.70;;;22.80;98.30;;;;;;5203214;22;20403;-83
2021/08/05 16:16:02;;;;;;;4.27;3.87;;;23.00;98.30;;;;;;5205460;22;20446;-82
2021/08/05 16:18:04;;;;;;;4.27;3.60;;;23.10;98.30;;;;;;5208828;22;20464;-81
2021/08/05 16:20:10;;;;;;;5.60;3.70;;;23.10;98.30;;;;;;5194628;22;20437;-82
2021/08/05 16:22:15;;;;;;;4.60;4.03;;;23.10;98.30;;;;;;5202866;22;20923;-82
2021/08/05 16:24:20;;;;;;;7.90;3.90;;;23.10;98.30;;;;;;5202307;22;20423;-82
2021/08/05 16:26:24;;;;;;;5.87;4.27;;;23.10;98.30;;;;;;5197176;22;20419;-83
2021/08/05 16:28:28;;;;;;;4.50;4.10;;;23.00;98.30;;;;;;5208747;22;20498;-83
2021/08/05 16:30:34;;;;;;;4.97;4.23;;;23.00;98.30;;;;;;5199003;22;20502;-82
2021/08/05 16:32:37;;;;;;;5.33;3.90;;;22.90;98.30;;;;;;5199816;22;20475;-82
2021/08/05 16:34:42;;;;;;;5.03;4.23;;;23.00;98.30;;;;;;5210218;22;20423;-82
2021/08/05 16:36:49;;;;;;;4.50;4.10;;;23.00;98.30;;;;;;5209160;22;20529;-83
2021/08/05 16:38:52;;;;;;;8.40;4.47;;;22.80;98.30;;;;;;5209988;22;20468;-81
2021/08/05 16:40:55;;;;;;;4.90;3.80;;;22.80;98.30;;;;;;5200899;22;20987;-82
2021/08/05 16:43:05;;;;;;;15.30;13.10;;;22.70;98.30;;;;;;5204074;22;20490;-84
2021/08/05 16:45:09;;;;;;;4.40;4.00;;;22.60;98.30;;;;;;5195542;22;20431;-82
2021/08/05 16:47:13;;;;;;;7.27;4.10;;;22.60;98.30;;;;;;5204122;22;20497;-83
2021/08/05 16:49:16;;;;;;;4.87;4.37;;;22.50;98.30;;;;;;5196559;22;20435;-82
2021/08/05 16:51:20;;;;;;;4.57;4.17;;;22.50;98.30;;;;;;5196232;22;20446;-82
2021/08/05 16:53:23;;;;;;;3.90;3.50;;;22.60;98.30;;;;;;5196588;22;20431;-82
2021/08/05 16:55:28;;;;;;;4.40;3.40;;;22.70;98.30;;;;;;5195705;22;20443;-82
2021/08/05 16:57:33;;;;;;;5.47;3.90;;;22.70;98.30;;;;;;5203943;22;20434;-82
2021/08/05 16:59:41;;;;;;;4.10;3.63;;;22.60;98.30;;;;;;5204406;22;20459;-82
2021/08/05 17:01:47;;;;;;;4.30;3.90;;;22.60;98.30;;;;;;5196443;22;20446;-82
2021/08/05 17:03:50;;;;;;;4.80;3.60;;;22.50;98.30;;;;;;5197006;22;20411;-82
2021/08/05 17:05:53;;;;;;;4.53;3.93;;;22.60;98.30;;;;;;5196189;22;20450;-82
2021/08/05 17:07:56;;;;;;;6.50;3.53;;;22.50;98.30;;;;;;5203760;22;20415;-81
2021/08/05 17:09:59;;;;;;;6.43;3.70;;;22.40;98.30;;;;;;5193813;22;20517;-83
2021/08/05 17:12:02;;;;;;;6.00;3.57;;;22.50;98.30;;;;;;5193929;22;20427;-81
2021/08/05 17:14:08;;;;;;;5.80;3.90;;;22.40;98.30;;;;;;5203181;22;20448;-83
2021/08/05 17:16:13;;;;;;;4.37;3.97;;;22.40;98.30;;;;;;5194329;22;20443;-83
2021/08/05 17:18:19;;;;;;;6.03;4.30;;;22.40;98.30;;;;;;5202273;22;20876;-82
2021/08/05 17:20:22;;;;;;;5.70;4.13;;;22.40;98.30;;;;;;5193372;22;20501;-84
2021/08/05 17:22:26;;;;;;;4.37;3.90;;;22.30;98.30;;;;;;5201469;22;20778;-83
2021/08/05 17:24:29;;;;;;;6.90;3.80;;;22.30;98.30;;;;;;5194467;22;20472;-83
2021/08/05 17:26:32;;;;;;;4.53;3.70;;;22.20;98.30;;;;;;5196480;22;20427;-83
2021/08/05 17:28:35;;;;;;;4.13;3.70;;;22.20;98.30;;;;;;5209491;22;20506;-83
2021/08/05 17:30:54;;;;;;;4.00;3.40;;;22.20;98.30;;;;;;5203771;22;20488;-82
2021/08/05 17:33:00;;;;;;;11.40;6.07;;;22.10;98.30;;;;;;5203953;22;21145;-82
2021/08/05 17:35:22;;;;;;;8.03;5.27;;;22.10;98.30;;;;;;5194064;22;20416;-82
2021/08/05 17:37:25;;;;;;;8.00;3.83;;;22.00;98.30;;;;;;5202885;22;20499;-84
2021/08/05 17:39:32;;;;;;;5.10;3.97;;;22.10;98.30;;;;;;5196916;22;20408;-83
2021/08/05 17:41:37;;;;;;;3.90;3.50;;;22.00;98.30;;;;;;5196157;22;20757;-84
2021/08/05 17:43:56;;;;;;;4.50;3.60;;;21.90;98.30;;;;;;5205557;22;20403;-82
2021/08/05 17:46:03;;;;;;;5.00;4.10;;;21.90;98.30;;;;;;5193344;22;20454;-82
2021/08/05 17:48:10;;;;;;;7.03;4.37;;;21.90;98.30;;;;;;5196445;22;20514;-83
2021/08/05 17:50:14;;;;;;;6.07;3.67;;;21.90;98.30;;;;;;5196084;22;20955;-83
2021/08/05 17:52:17;;;;;;;6.70;4.00;;;21.90;98.30;;;;;;5194144;22;20544;-84
2021/08/05 17:54:24;;;;;;;5.97;3.73;;;21.90;98.30;;;;;;5201705;22;20442;-85
2021/08/05 17:56:37;;;;;;;4.70;4.20;;;21.80;98.30;;;;;;5204045;22;20441;-86
2021/08/05 17:58:40;;;;;;;7.70;4.57;;;21.70;98.30;;;;;;5203933;22;20415;-85
2021/08/05 18:00:43;;;;;;;7.67;4.00;;;21.70;98.30;;;;;;5202059;22;20447;-86
2021/08/05 18:02:48;;;;;;;7.67;4.00;;;21.70;98.30;;;;;;5200113;22;20468;-85
2021/08/05 18:04:55;;;;;;;6.10;3.90;;;21.70;98.30;;;;;;5200914;22;20411;-86
2021/08/05 18:07:04;;;;;;;4.90;3.60;;;21.70;98.30;;;;;;5200251;22;20403;-85
2021/08/05 18:09:18;;;;;;;7.30;4.37;;;21.60;98.30;;;;;;5200291;22;20498;-83
2021/08/05 18:11:27;;;;;;;8.03;5.17;;;21.60;98.30;;;;;;5200591;22;20943;-85
2021/08/05 18:13:31;;;;;;;3.87;3.47;;;21.60;98.30;;;;;;5200932;22;20422;-85
2021/08/05 18:15:35;;;;;;;5.37;3.70;;;21.50;98.30;;;;;;5200430;22;20506;-85
2021/08/05 18:17:44;;;;;;;7.07;4.33;;;21.50;98.30;;;;;;5199948;22;20462;-85
2021/08/05 18:19:49;;;;;;;4.50;3.73;;;21.40;98.30;;;;;;5200725;22;21192;-84
2021/08/05 18:21:57;;;;;;;11.20;4.13;;;21.20;98.30;;;;;;5201014;22;20442;-84
2021/08/05 18:24:00;;;;;;;5.37;4.00;;;21.10;98.30;;;;;;5192447;22;20410;-84
2021/08/05 18:26:03;;;;;;;5.43;3.60;;;21.00;98.30;;;;;;5200291;22;20950;-85
2021/08/05 18:28:06;;;;;;;4.40;3.57;;;20.90;98.30;;;;;;5200420;22;20485;-84
2021/08/05 18:30:10;;;;;;;5.60;3.33;;;20.80;98.30;;;;;;5201706;22;20422;-85
2021/08/05 18:32:13;;;;;;;6.17;3.73;;;20.80;98.30;;;;;;5203875;22;20438;-84
2021/08/05 18:34:16;;;;;;;4.33;3.67;;;20.90;98.30;;;;;;5200791;22;20411;-85
2021/08/05 18:36:19;;;;;;;4.93;4.53;;;20.90;98.30;;;;;;5200546;22;20442;-85
2021/08/05 18:38:25;;;;;;;5.10;4.57;;;21.00;98.30;;;;;;5199756;22;20450;-85
2021/08/05 18:40:28;;;;;;;6.50;4.83;;;21.00;98.30;;;;;;5199501;22;20533;-85
2021/08/05 18:42:36;;;;;;;6.47;4.73;;;20.90;98.30;;;;;;5199047;22;20419;-86
2021/08/05 18:44:39;;;;;;;7.80;4.73;;;20.80;98.30;;;;;;5200621;22;20783;-86
2021/08/05 18:46:52;;;;;;;5.60;5.00;;;20.80;98.30;;;;;;5200382;22;20458;-86
2021/08/05 18:48:56;;;;;;;7.40;5.87;;;20.60;98.30;;;;;;5200647;22;20509;-86
2021/08/05 18:50:59;;;;;;;5.13;4.60;;;20.50;98.30;;;;;;5200183;22;20466;-85
2021/08/05 18:53:03;;;;;;;5.40;4.90;;;20.50;98.30;;;;;;5200759;22;20418;-85
2021/08/05 18:55:08;;;;;;;5.63;5.00;;;20.30;98.30;;;;;;5200920;22;20505;-85
2021/08/05 18:57:11;;;;;;;4.40;4.00;;;20.10;98.30;;;;;;5200589;22;20462;-86
2021/08/05 18:59:15;;;;;;;5.10;4.70;;;20.00;98.30;;;;;;5200008;22;20426;-86
2021/08/05 19:01:18;;;;;;;4.90;4.40;;;20.00;98.30;;;;;;5200098;22;21075;-85
2021/08/05 19:03:21;;;;;;;4.73;3.87;;;19.80;98.30;;;;;;5200137;22;20425;-85
2021/08/05 19:05:27;;;;;;;5.90;4.20;;;19.80;98.30;;;;;;5200381;22;20431;-86
2021/08/05 19:07:30;;;;;;;5.37;4.60;;;19.80;98.30;;;;;;5192621;22;20442;-85
2021/08/05 19:09:34;;;;;;;4.47;3.83;;;19.80;98.30;;;;;;5200287;22;20430;-86
2021/08/05 19:11:39;;;;;;;4.43;4.00;;;19.80;98.30;;;;;;5200049;22;20470;-85
2021/08/05 19:13:42;;;;;;;4.83;4.43;;;19.60;98.30;;;;;;5199871;22;20550;-85
2021/08/05 19:15:48;;;;;;;4.43;4.03;;;19.60;98.30;;;;;;5200119;22;20772;-85
2021/08/05 19:17:51;;;;;;;4.07;3.70;;;19.60;98.30;;;;;;5199965;22;20423;-85
2021/08/05 19:19:54;;;;;;;4.73;4.17;;;19.50;98.30;;;;;;5200112;22;20449;-84
2021/08/05 19:21:57;;;;;;;3.80;3.50;;;19.40;98.30;;;;;;5201916;22;20442;-84
2021/08/05 19:24:00;;;;;;;4.10;3.70;;;19.30;98.30;;;;;;5200948;22;20450;-85
2021/08/05 19:26:03;;;;;;;5.63;3.90;;;19.30;98.30;;;;;;5201670;22;20947;-85
2021/08/05 19:28:08;;;;;;;4.30;3.90;;;19.30;98.30;;;;;;5201406;22;20442;-83
2021/08/05 19:30:12;;;;;;;4.03;3.73;;;19.20;98.30;;;;;;5201488;22;20422;-84
2021/08/05 19:32:15;;;;;;;4.30;3.87;;;19.30;98.30;;;;;;5201610;22;20490;-84
2021/08/05 19:34:18;;;;;;;4.40;4.00;;;19.20;98.30;;;;;;5194921;22;20458;-84
2021/08/05 19:36:21;;;;;;;4.40;3.67;;;19.20;98.30;;;;;;5214244;22;20441;-82
2021/08/05 19:38:23;;;;;;;3.53;3.23;;;19.10;98.30;;;;;;5202813;22;20442;-84
